sensor_id;sensor_type;location;lat;lon;timestamp;temperature;humidity
9760;DHT22;4919;48.792;9.202;2023-05-10T00:00:32;10.80;1.00
9760;DHT22;4919;48.792;9.202;2023-05-10T00:03:17;10.70;1.00
9760;DHT22;4919;48.792;9.202;2023-05-10T00:06:02;10.70;1.00
9760;DHT22;4919;48.792;9.202;2023-05-10T00:08:47;10.60;1.00
9760;DHT22;4919;48.792;9.202;2023-05-10T00:11:31;10.50;1.00
9760;DHT22;4919;48.792;9.202;2023-05-10T00:14:17;10.40;1.00
9760;DHT22;4919;48.792;9.202;2023-05-10T00:17:01;10.40;1.00
9760;DHT22;4919;48.792;9.202;2023-05-10T00:19:46;10.30;1.00
9760;DHT22;4919;48.792;9.202;2023-05-10T00:22:31;10.30;1.00
9760;DHT22;4919;48.792;9.202;2023-05-10T00:25:16;10.30;1.00
9760;DHT22;4919;48.792;9.202;2023-05-10T00:28:01;10.30;1.00
9760;DHT22;4919;48.792;9.202;2023-05-10T00:30:46;10.30;1.00
9760;DHT22;4919;48.792;9.202;2023-05-10T00:33:31;10.40;1.00
9760;DHT22;4919;48.792;9.202;2023-05-10T00:36:15;10.60;1.00
9760;DHT22;4919;48.792;9.202;2023-05-10T00:39:00;10.50;1.00
9760;DHT22;4919;48.792;9.202;2023-05-10T00:41:45;10.40;1.00
9760;DHT22;4919;48.792;9.202;2023-05-10T00:44:30;10.40;1.00
9760;DHT22;4919;48.792;9.202;2023-05-10T00:47:16;10.50;1.00
9760;DHT22;4919;48.792;9.202;2023-05-10T00:50:01;10.50;1.00
9760;DHT22;4919;48.792;9.202;2023-05-10T00:52:47;10.50;1.00
9760;DHT22;4919;48.792;9.202;2023-05-10T00:55:32;10.50;1.00
9760;DHT22;4919;48.792;9.202;2023-05-10T00:58:16;10.50;1.00
9760;DHT22;4919;48.792;9.202;2023-05-10T01:01:01;10.50;1.00
9760;DHT22;4919;48.792;9.202;2023-05-10T01:03:47;10.60;1.00
9760;DHT22;4919;48.792;9.202;2023-05-10T01:06:31;10.60;1.00
9760;DHT22;4919;48.792;9.202;2023-05-10T01:09:16;10.60;1.00
9760;DHT22;4919;48.792;9.202;2023-05-10T01:12:01;10.60;1.00
9760;DHT22;4919;48.792;9.202;2023-05-10T01:14:46;10.60;1.00
9760;DHT22;4919;48.792;9.202;2023-05-10T01:17:32;10.60;1.00
9760;DHT22;4919;48.792;9.202;2023-05-10T01:20:17;10.50;1.00
9760;DHT22;4919;48.792;9.202;2023-05-10T01:23:34;10.40;1.00
9760;DHT22;4919;48.792;9.202;2023-05-10T01:29:47;10.40;1.00
9760;DHT22;4919;48.792;9.202;2023-05-10T01:36:05;10.30;1.00
9760;DHT22;4919;48.792;9.202;2023-05-10T01:41:51;10.20;1.00
9760;DHT22;4919;48.792;9.202;2023-05-10T01:44:56;10.20;1.00
9760;DHT22;4919;48.792;9.202;2023-05-10T01:47:46;10.10;1.00
9760;DHT22;4919;48.792;9.202;2023-05-10T01:50:35;10.10;1.00
9760;DHT22;4919;48.792;9.202;2023-05-10T01:53:20;10.00;1.00
9760;DHT22;4919;48.792;9.202;2023-05-10T01:56:07;9.90;1.00
9760;DHT22;4919;48.792;9.202;2023-05-10T01:58:53;9.90;1.00
9760;DHT22;4919;48.792;9.202;2023-05-10T02:01:40;9.90;1.00
9760;DHT22;4919;48.792;9.202;2023-05-10T02:04:25;9.90;1.00
9760;DHT22;4919;48.792;9.202;2023-05-10T02:07:11;9.90;1.00
9760;DHT22;4919;48.792;9.202;2023-05-10T02:09:57;9.90;1.00
9760;DHT22;4919;48.792;9.202;2023-05-10T02:12:44;9.80;1.00
9760;DHT22;4919;48.792;9.202;2023-05-10T02:15:31;9.70;1.00
9760;DHT22;4919;48.792;9.202;2023-05-10T02:18:17;9.70;1.00
9760;DHT22;4919;48.792;9.202;2023-05-10T02:21:03;9.60;1.00
9760;DHT22;4919;48.792;9.202;2023-05-10T02:23:50;9.60;1.00
9760;DHT22;4919;48.792;9.202;2023-05-10T02:26:36;9.60;1.00
9760;DHT22;4919;48.792;9.202;2023-05-10T02:29:24;9.50;1.00
9760;DHT22;4919;48.792;9.202;2023-05-10T02:32:10;9.40;1.00
9760;DHT22;4919;48.792;9.202;2023-05-10T02:34:55;9.50;1.00
9760;DHT22;4919;48.792;9.202;2023-05-10T02:37:42;9.40;1.00
9760;DHT22;4919;48.792;9.202;2023-05-10T02:40:28;9.40;1.00
9760;DHT22;4919;48.792;9.202;2023-05-10T02:43:15;9.30;1.00
9760;DHT22;4919;48.792;9.202;2023-05-10T02:46:01;9.40;1.00
9760;DHT22;4919;48.792;9.202;2023-05-10T02:48:46;9.30;1.00
9760;DHT22;4919;48.792;9.202;2023-05-10T02:51:32;9.20;1.00
9760;DHT22;4919;48.792;9.202;2023-05-10T02:54:20;9.20;1.00
9760;DHT22;4919;48.792;9.202;2023-05-10T02:57:11;9.20;1.00
9760;DHT22;4919;48.792;9.202;2023-05-10T02:59:59;9.00;1.00
9760;DHT22;4919;48.792;9.202;2023-05-10T03:02:44;9.00;1.00
9760;DHT22;4919;48.792;9.202;2023-05-10T03:05:29;9.00;1.00
9760;DHT22;4919;48.792;9.202;2023-05-10T03:08:14;9.10;1.00
9760;DHT22;4919;48.792;9.202;2023-05-10T03:13:59;9.00;1.00
9760;DHT22;4919;48.792;9.202;2023-05-10T03:20:10;9.00;1.00
9760;DHT22;4919;48.792;9.202;2023-05-10T03:23:04;8.90;1.00
9760;DHT22;4919;48.792;9.202;2023-05-10T03:25:52;8.90;1.00
9760;DHT22;4919;48.792;9.202;2023-05-10T03:28:36;8.90;1.00
9760;DHT22;4919;48.792;9.202;2023-05-10T03:31:21;8.90;1.00
9760;DHT22;4919;48.792;9.202;2023-05-10T03:34:06;8.90;1.00
9760;DHT22;4919;48.792;9.202;2023-05-10T03:36:52;8.90;1.00
9760;DHT22;4919;48.792;9.202;2023-05-10T03:39:36;8.80;1.00
9760;DHT22;4919;48.792;9.202;2023-05-10T03:42:21;8.80;1.00
9760;DHT22;4919;48.792;9.202;2023-05-10T03:45:07;8.80;1.00
9760;DHT22;4919;48.792;9.202;2023-05-10T03:47:52;8.80;1.00
9760;DHT22;4919;48.792;9.202;2023-05-10T03:50:37;8.80;1.00
9760;DHT22;4919;48.792;9.202;2023-05-10T03:53:22;8.80;1.00
9760;DHT22;4919;48.792;9.202;2023-05-10T03:56:07;8.80;1.00
9760;DHT22;4919;48.792;9.202;2023-05-10T03:58:51;8.90;1.00
9760;DHT22;4919;48.792;9.202;2023-05-10T04:01:37;8.90;1.00
9760;DHT22;4919;48.792;9.202;2023-05-10T04:04:21;8.90;1.00
9760;DHT22;4919;48.792;9.202;2023-05-10T04:07:06;9.00;1.00
9760;DHT22;4919;48.792;9.202;2023-05-10T04:09:51;9.00;1.00
9760;DHT22;4919;48.792;9.202;2023-05-10T04:12:36;9.00;1.00
9760;DHT22;4919;48.792;9.202;2023-05-10T04:15:21;9.10;1.00
9760;DHT22;4919;48.792;9.202;2023-05-10T04:18:06;9.10;1.00
9760;DHT22;4919;48.792;9.202;2023-05-10T04:20:51;9.10;1.00
9760;DHT22;4919;48.792;9.202;2023-05-10T04:23:35;9.20;1.00
9760;DHT22;4919;48.792;9.202;2023-05-10T04:26:20;9.30;1.00
9760;DHT22;4919;48.792;9.202;2023-05-10T04:29:05;9.40;1.00
9760;DHT22;4919;48.792;9.202;2023-05-10T04:31:50;9.40;1.00
9760;DHT22;4919;48.792;9.202;2023-05-10T04:34:34;9.50;1.00
9760;DHT22;4919;48.792;9.202;2023-05-10T04:37:19;9.60;1.00
9760;DHT22;4919;48.792;9.202;2023-05-10T04:40:05;9.70;1.00
9760;DHT22;4919;48.792;9.202;2023-05-10T04:42:50;9.80;1.00
9760;DHT22;4919;48.792;9.202;2023-05-10T04:45:34;10.00;1.00
9760;DHT22;4919;48.792;9.202;2023-05-10T04:48:19;10.10;1.00
9760;DHT22;4919;48.792;9.202;2023-05-10T04:51:04;10.20;1.00
9760;DHT22;4919;48.792;9.202;2023-05-10T04:53:49;10.60;1.00
9760;DHT22;4919;48.792;9.202;2023-05-10T04:56:34;11.30;1.00
9760;DHT22;4919;48.792;9.202;2023-05-10T04:59:19;11.90;1.00
9760;DHT22;4919;48.792;9.202;2023-05-10T05:02:04;12.10;1.00
9760;DHT22;4919;48.792;9.202;2023-05-10T05:04:49;12.00;1.00
9760;DHT22;4919;48.792;9.202;2023-05-10T05:07:34;12.30;1.00
9760;DHT22;4919;48.792;9.202;2023-05-10T05:10:19;12.60;1.00
9760;DHT22;4919;48.792;9.202;2023-05-10T05:13:04;13.00;1.00
9760;DHT22;4919;48.792;9.202;2023-05-10T05:15:49;13.40;1.00
9760;DHT22;4919;48.792;9.202;2023-05-10T05:18:33;13.80;1.00
9760;DHT22;4919;48.792;9.202;2023-05-10T05:21:19;14.10;1.00
9760;DHT22;4919;48.792;9.202;2023-05-10T05:24:04;14.40;1.00
9760;DHT22;4919;48.792;9.202;2023-05-10T05:26:49;14.40;1.00
9760;DHT22;4919;48.792;9.202;2023-05-10T05:29:34;15.10;1.00
9760;DHT22;4919;48.792;9.202;2023-05-10T05:32:19;14.80;1.00
9760;DHT22;4919;48.792;9.202;2023-05-10T05:35:04;14.70;1.00
9760;DHT22;4919;48.792;9.202;2023-05-10T05:37:49;14.60;1.00
9760;DHT22;4919;48.792;9.202;2023-05-10T05:40:34;14.80;1.00
9760;DHT22;4919;48.792;9.202;2023-05-10T05:43:19;14.70;1.00
9760;DHT22;4919;48.792;9.202;2023-05-10T05:46:04;14.50;1.00
9760;DHT22;4919;48.792;9.202;2023-05-10T05:48:48;14.70;1.00
9760;DHT22;4919;48.792;9.202;2023-05-10T05:51:33;14.80;1.00
9760;DHT22;4919;48.792;9.202;2023-05-10T05:54:18;15.10;1.00
9760;DHT22;4919;48.792;9.202;2023-05-10T05:57:03;15.40;1.00
9760;DHT22;4919;48.792;9.202;2023-05-10T05:59:48;15.50;1.00
9760;DHT22;4919;48.792;9.202;2023-05-10T06:02:32;15.40;1.00
9760;DHT22;4919;48.792;9.202;2023-05-10T06:05:17;15.80;1.00
9760;DHT22;4919;48.792;9.202;2023-05-10T06:08:02;16.20;1.00
9760;DHT22;4919;48.792;9.202;2023-05-10T06:10:47;16.30;1.00
9760;DHT22;4919;48.792;9.202;2023-05-10T06:13:32;16.50;1.00
9760;DHT22;4919;48.792;9.202;2023-05-10T06:16:17;16.60;1.00
9760;DHT22;4919;48.792;9.202;2023-05-10T06:19:02;16.80;1.00
9760;DHT22;4919;48.792;9.202;2023-05-10T06:21:47;16.50;1.00
9760;DHT22;4919;48.792;9.202;2023-05-10T06:24:32;16.80;1.00
9760;DHT22;4919;48.792;9.202;2023-05-10T06:27:16;17.20;1.00
9760;DHT22;4919;48.792;9.202;2023-05-10T06:30:01;16.50;1.00
9760;DHT22;4919;48.792;9.202;2023-05-10T06:32:46;16.50;1.00
9760;DHT22;4919;48.792;9.202;2023-05-10T06:35:31;16.70;1.00
9760;DHT22;4919;48.792;9.202;2023-05-10T06:38:16;17.10;1.00
9760;DHT22;4919;48.792;9.202;2023-05-10T06:41:01;16.50;1.00
9760;DHT22;4919;48.792;9.202;2023-05-10T06:43:46;16.70;1.00
9760;DHT22;4919;48.792;9.202;2023-05-10T06:46:31;17.30;1.00
9760;DHT22;4919;48.792;9.202;2023-05-10T06:49:16;17.10;1.00
9760;DHT22;4919;48.792;9.202;2023-05-10T06:52:00;17.20;1.00
9760;DHT22;4919;48.792;9.202;2023-05-10T06:54:45;17.10;1.00
9760;DHT22;4919;48.792;9.202;2023-05-10T06:57:31;16.70;1.00
9760;DHT22;4919;48.792;9.202;2023-05-10T07:00:16;16.60;1.00
9760;DHT22;4919;48.792;9.202;2023-05-10T07:03:01;16.80;1.00
9760;DHT22;4919;48.792;9.202;2023-05-10T07:05:46;16.50;1.00
9760;DHT22;4919;48.792;9.202;2023-05-10T07:08:31;16.30;1.00
9760;DHT22;4919;48.792;9.202;2023-05-10T07:11:16;16.30;1.00
9760;DHT22;4919;48.792;9.202;2023-05-10T07:14:01;16.40;1.00
9760;DHT22;4919;48.792;9.202;2023-05-10T07:16:45;16.60;1.00
9760;DHT22;4919;48.792;9.202;2023-05-10T07:19:30;16.60;1.00
9760;DHT22;4919;48.792;9.202;2023-05-10T07:22:15;16.40;1.00
9760;DHT22;4919;48.792;9.202;2023-05-10T07:25:00;16.30;1.00
9760;DHT22;4919;48.792;9.202;2023-05-10T07:27:45;16.10;1.00
9760;DHT22;4919;48.792;9.202;2023-05-10T07:30:30;16.20;1.00
9760;DHT22;4919;48.792;9.202;2023-05-10T07:33:14;16.30;1.00
9760;DHT22;4919;48.792;9.202;2023-05-10T07:35:59;16.30;1.00
9760;DHT22;4919;48.792;9.202;2023-05-10T07:38:44;16.20;1.00
9760;DHT22;4919;48.792;9.202;2023-05-10T07:41:29;16.30;1.00
9760;DHT22;4919;48.792;9.202;2023-05-10T07:44:14;16.30;1.00
9760;DHT22;4919;48.792;9.202;2023-05-10T07:46:59;16.30;1.00
9760;DHT22;4919;48.792;9.202;2023-05-10T07:49:44;16.30;1.00
9760;DHT22;4919;48.792;9.202;2023-05-10T07:52:29;16.20;1.00
9760;DHT22;4919;48.792;9.202;2023-05-10T07:55:14;16.20;1.00
9760;DHT22;4919;48.792;9.202;2023-05-10T07:57:59;16.30;1.00
9760;DHT22;4919;48.792;9.202;2023-05-10T08:00:43;16.30;1.00
9760;DHT22;4919;48.792;9.202;2023-05-10T08:03:28;16.40;1.00
9760;DHT22;4919;48.792;9.202;2023-05-10T08:06:17;16.40;1.00
9760;DHT22;4919;48.792;9.202;2023-05-10T08:09:02;16.40;1.00
9760;DHT22;4919;48.792;9.202;2023-05-10T08:11:46;16.50;1.00
9760;DHT22;4919;48.792;9.202;2023-05-10T08:14:31;16.50;1.00
9760;DHT22;4919;48.792;9.202;2023-05-10T08:17:16;16.50;1.00
9760;DHT22;4919;48.792;9.202;2023-05-10T08:20:01;16.50;1.00
9760;DHT22;4919;48.792;9.202;2023-05-10T08:22:46;16.70;1.00
9760;DHT22;4919;48.792;9.202;2023-05-10T08:25:31;16.70;1.00
9760;DHT22;4919;48.792;9.202;2023-05-10T08:28:16;16.90;1.00
9760;DHT22;4919;48.792;9.202;2023-05-10T08:31:01;16.90;1.00
9760;DHT22;4919;48.792;9.202;2023-05-10T08:33:45;17.00;1.00
9760;DHT22;4919;48.792;9.202;2023-05-10T08:36:30;17.10;1.00
9760;DHT22;4919;48.792;9.202;2023-05-10T08:39:15;17.40;1.00
9760;DHT22;4919;48.792;9.202;2023-05-10T08:42:03;17.30;1.00
9760;DHT22;4919;48.792;9.202;2023-05-10T08:44:48;17.40;1.00
9760;DHT22;4919;48.792;9.202;2023-05-10T08:47:36;17.50;1.00
9760;DHT22;4919;48.792;9.202;2023-05-10T08:50:21;17.80;1.00
9760;DHT22;4919;48.792;9.202;2023-05-10T08:53:12;17.80;1.00
9760;DHT22;4919;48.792;9.202;2023-05-10T08:55:58;18.40;1.00
9760;DHT22;4919;48.792;9.202;2023-05-10T08:58:43;19.00;1.00
9760;DHT22;4919;48.792;9.202;2023-05-10T09:01:28;19.00;1.00
9760;DHT22;4919;48.792;9.202;2023-05-10T09:04:13;19.10;1.00
9760;DHT22;4919;48.792;9.202;2023-05-10T09:06:58;19.30;1.00
9760;DHT22;4919;48.792;9.202;2023-05-10T09:09:43;19.50;1.00
9760;DHT22;4919;48.792;9.202;2023-05-10T09:12:28;19.70;1.00
9760;DHT22;4919;48.792;9.202;2023-05-10T09:15:15;20.00;1.00
9760;DHT22;4919;48.792;9.202;2023-05-10T09:18:00;20.40;1.00
9760;DHT22;4919;48.792;9.202;2023-05-10T09:20:45;20.70;1.00
9760;DHT22;4919;48.792;9.202;2023-05-10T09:23:30;20.80;1.00
9760;DHT22;4919;48.792;9.202;2023-05-10T09:26:15;20.60;1.00
9760;DHT22;4919;48.792;9.202;2023-05-10T09:29:00;20.20;1.00
9760;DHT22;4919;48.792;9.202;2023-05-10T09:31:50;20.70;1.00
9760;DHT22;4919;48.792;9.202;2023-05-10T09:34:35;20.20;1.00
9760;DHT22;4919;48.792;9.202;2023-05-10T09:37:29;20.80;1.00
9760;DHT22;4919;48.792;9.202;2023-05-10T09:40:16;20.40;1.00
9760;DHT22;4919;48.792;9.202;2023-05-10T09:43:06;21.00;1.00
9760;DHT22;4919;48.792;9.202;2023-05-10T09:45:51;21.40;1.00
9760;DHT22;4919;48.792;9.202;2023-05-10T09:48:42;21.40;1.00
9760;DHT22;4919;48.792;9.202;2023-05-10T09:51:27;21.20;1.00
9760;DHT22;4919;48.792;9.202;2023-05-10T09:54:16;21.30;1.00
9760;DHT22;4919;48.792;9.202;2023-05-10T09:57:01;21.70;1.00
9760;DHT22;4919;48.792;9.202;2023-05-10T09:59:47;21.50;1.00
9760;DHT22;4919;48.792;9.202;2023-05-10T10:02:32;21.70;1.00
9760;DHT22;4919;48.792;9.202;2023-05-10T10:05:17;22.10;1.00
9760;DHT22;4919;48.792;9.202;2023-05-10T10:08:04;21.90;1.00
9760;DHT22;4919;48.792;9.202;2023-05-10T10:10:49;21.20;1.00
9760;DHT22;4919;48.792;9.202;2023-05-10T10:13:34;21.90;1.00
9760;DHT22;4919;48.792;9.202;2023-05-10T10:16:20;22.00;1.00
9760;DHT22;4919;48.792;9.202;2023-05-10T10:19:06;21.40;1.00
9760;DHT22;4919;48.792;9.202;2023-05-10T10:21:51;21.60;1.00
9760;DHT22;4919;48.792;9.202;2023-05-10T10:24:36;21.40;1.00
9760;DHT22;4919;48.792;9.202;2023-05-10T10:30:18;22.40;1.00
9760;DHT22;4919;48.792;9.202;2023-05-10T10:36:47;22.00;1.00
9760;DHT22;4919;48.792;9.202;2023-05-10T10:39:32;22.40;1.00
9760;DHT22;4919;48.792;9.202;2023-05-10T10:42:43;22.70;1.00
9760;DHT22;4919;48.792;9.202;2023-05-10T10:45:28;22.50;1.00
9760;DHT22;4919;48.792;9.202;2023-05-10T10:48:21;22.00;1.00
9760;DHT22;4919;48.792;9.202;2023-05-10T10:51:06;22.60;1.00
9760;DHT22;4919;48.792;9.202;2023-05-10T10:53:50;22.40;1.00
9760;DHT22;4919;48.792;9.202;2023-05-10T10:56:36;22.30;1.00
9760;DHT22;4919;48.792;9.202;2023-05-10T10:59:27;22.50;1.00
9760;DHT22;4919;48.792;9.202;2023-05-10T11:05:44;23.00;1.00
9760;DHT22;4919;48.792;9.202;2023-05-10T11:08:31;22.80;1.00
9760;DHT22;4919;48.792;9.202;2023-05-10T11:11:15;23.30;1.00
9760;DHT22;4919;48.792;9.202;2023-05-10T11:14:05;23.60;1.00
9760;DHT22;4919;48.792;9.202;2023-05-10T11:16:50;22.80;1.00
9760;DHT22;4919;48.792;9.202;2023-05-10T11:19:35;23.00;1.00
9760;DHT22;4919;48.792;9.202;2023-05-10T11:22:20;22.90;1.00
9760;DHT22;4919;48.792;9.202;2023-05-10T11:25:06;22.70;1.00
9760;DHT22;4919;48.792;9.202;2023-05-10T11:27:51;22.80;1.00
9760;DHT22;4919;48.792;9.202;2023-05-10T11:30:37;23.20;1.00
9760;DHT22;4919;48.792;9.202;2023-05-10T11:33:22;23.30;1.00
9760;DHT22;4919;48.792;9.202;2023-05-10T11:36:17;23.20;1.00
9760;DHT22;4919;48.792;9.202;2023-05-10T11:39:03;22.90;1.00
9760;DHT22;4919;48.792;9.202;2023-05-10T11:41:49;22.90;1.00
9760;DHT22;4919;48.792;9.202;2023-05-10T11:44:34;22.80;1.00
9760;DHT22;4919;48.792;9.202;2023-05-10T11:47:19;23.10;1.00
9760;DHT22;4919;48.792;9.202;2023-05-10T11:50:04;23.40;1.00
9760;DHT22;4919;48.792;9.202;2023-05-10T11:52:53;23.50;1.00
9760;DHT22;4919;48.792;9.202;2023-05-10T11:55:38;23.50;1.00
9760;DHT22;4919;48.792;9.202;2023-05-10T11:58:23;23.30;1.00
9760;DHT22;4919;48.792;9.202;2023-05-10T12:01:09;23.10;1.00
9760;DHT22;4919;48.792;9.202;2023-05-10T12:03:55;23.30;1.00
9760;DHT22;4919;48.792;9.202;2023-05-10T12:06:41;23.40;1.00
9760;DHT22;4919;48.792;9.202;2023-05-10T12:09:26;22.90;1.00
9760;DHT22;4919;48.792;9.202;2023-05-10T12:12:16;23.10;1.00
9760;DHT22;4919;48.792;9.202;2023-05-10T12:15:02;23.20;1.00
9760;DHT22;4919;48.792;9.202;2023-05-10T12:17:49;23.30;1.00
9760;DHT22;4919;48.792;9.202;2023-05-10T12:20:34;23.30;1.00
9760;DHT22;4919;48.792;9.202;2023-05-10T12:23:20;23.20;1.00
9760;DHT22;4919;48.792;9.202;2023-05-10T12:26:05;23.60;1.00
9760;DHT22;4919;48.792;9.202;2023-05-10T12:28:50;23.50;1.00
9760;DHT22;4919;48.792;9.202;2023-05-10T12:31:58;23.40;1.00
9760;DHT22;4919;48.792;9.202;2023-05-10T12:34:46;23.40;1.00
9760;DHT22;4919;48.792;9.202;2023-05-10T12:37:31;23.60;1.00
9760;DHT22;4919;48.792;9.202;2023-05-10T12:40:16;24.00;1.00
9760;DHT22;4919;48.792;9.202;2023-05-10T12:43:01;23.80;1.00
9760;DHT22;4919;48.792;9.202;2023-05-10T12:45:46;23.60;1.00
9760;DHT22;4919;48.792;9.202;2023-05-10T12:48:31;24.00;1.00
9760;DHT22;4919;48.792;9.202;2023-05-10T12:51:16;23.80;1.00
9760;DHT22;4919;48.792;9.202;2023-05-10T12:54:02;23.60;1.00
9760;DHT22;4919;48.792;9.202;2023-05-10T12:56:46;23.60;1.00
9760;DHT22;4919;48.792;9.202;2023-05-10T12:59:31;23.80;1.00
9760;DHT22;4919;48.792;9.202;2023-05-10T13:02:16;24.00;1.00
9760;DHT22;4919;48.792;9.202;2023-05-10T13:05:01;23.80;1.00
9760;DHT22;4919;48.792;9.202;2023-05-10T13:07:46;23.80;1.00
9760;DHT22;4919;48.792;9.202;2023-05-10T13:10:31;23.90;1.00
9760;DHT22;4919;48.792;9.202;2023-05-10T13:13:16;23.80;1.00
9760;DHT22;4919;48.792;9.202;2023-05-10T13:16:01;24.00;1.00
9760;DHT22;4919;48.792;9.202;2023-05-10T13:18:46;23.60;1.00
9760;DHT22;4919;48.792;9.202;2023-05-10T13:21:31;23.80;1.00
9760;DHT22;4919;48.792;9.202;2023-05-10T13:24:15;23.90;1.00
9760;DHT22;4919;48.792;9.202;2023-05-10T13:27:00;23.90;1.00
9760;DHT22;4919;48.792;9.202;2023-05-10T13:29:45;23.90;1.00
9760;DHT22;4919;48.792;9.202;2023-05-10T13:32:30;24.10;1.00
9760;DHT22;4919;48.792;9.202;2023-05-10T13:35:15;24.10;1.00
9760;DHT22;4919;48.792;9.202;2023-05-10T13:38:00;24.10;1.00
9760;DHT22;4919;48.792;9.202;2023-05-10T13:40:45;24.00;1.00
9760;DHT22;4919;48.792;9.202;2023-05-10T13:43:30;24.00;1.00
9760;DHT22;4919;48.792;9.202;2023-05-10T13:46:14;23.90;1.00
9760;DHT22;4919;48.792;9.202;2023-05-10T13:48:59;23.90;1.00
9760;DHT22;4919;48.792;9.202;2023-05-10T13:51:44;23.70;1.00
9760;DHT22;4919;48.792;9.202;2023-05-10T13:54:29;23.70;1.00
9760;DHT22;4919;48.792;9.202;2023-05-10T13:57:14;24.00;1.00
9760;DHT22;4919;48.792;9.202;2023-05-10T13:59:58;23.80;1.00
9760;DHT22;4919;48.792;9.202;2023-05-10T14:02:43;24.00;1.00
9760;DHT22;4919;48.792;9.202;2023-05-10T14:05:32;24.10;1.00
9760;DHT22;4919;48.792;9.202;2023-05-10T14:08:17;23.80;1.00
9760;DHT22;4919;48.792;9.202;2023-05-10T14:11:01;24.00;1.00
9760;DHT22;4919;48.792;9.202;2023-05-10T14:13:46;24.10;1.00
9760;DHT22;4919;48.792;9.202;2023-05-10T14:16:31;24.30;1.00
9760;DHT22;4919;48.792;9.202;2023-05-10T14:19:16;24.20;1.00
9760;DHT22;4919;48.792;9.202;2023-05-10T14:22:01;24.20;1.00
9760;DHT22;4919;48.792;9.202;2023-05-10T14:24:46;24.50;1.00
9760;DHT22;4919;48.792;9.202;2023-05-10T14:27:31;24.30;1.00
9760;DHT22;4919;48.792;9.202;2023-05-10T14:30:16;24.30;1.00
9760;DHT22;4919;48.792;9.202;2023-05-10T14:33:02;24.50;1.00
9760;DHT22;4919;48.792;9.202;2023-05-10T14:35:47;24.60;1.00
9760;DHT22;4919;48.792;9.202;2023-05-10T14:38:32;24.80;1.00
9760;DHT22;4919;48.792;9.202;2023-05-10T14:41:17;25.00;1.00
9760;DHT22;4919;48.792;9.202;2023-05-10T14:44:02;24.70;1.00
9760;DHT22;4919;48.792;9.202;2023-05-10T14:46:47;24.50;1.00
9760;DHT22;4919;48.792;9.202;2023-05-10T14:49:32;24.60;1.00
9760;DHT22;4919;48.792;9.202;2023-05-10T14:52:17;24.40;1.00
9760;DHT22;4919;48.792;9.202;2023-05-10T14:55:02;24.30;1.00
9760;DHT22;4919;48.792;9.202;2023-05-10T14:57:46;23.90;1.00
9760;DHT22;4919;48.792;9.202;2023-05-10T15:00:31;24.00;1.00
9760;DHT22;4919;48.792;9.202;2023-05-10T15:03:16;23.90;1.00
9760;DHT22;4919;48.792;9.202;2023-05-10T15:06:01;24.00;1.00
9760;DHT22;4919;48.792;9.202;2023-05-10T15:08:46;24.00;1.00
9760;DHT22;4919;48.792;9.202;2023-05-10T15:11:30;23.70;1.00
9760;DHT22;4919;48.792;9.202;2023-05-10T15:14:15;23.60;1.00
9760;DHT22;4919;48.792;9.202;2023-05-10T15:17:00;23.70;1.00
9760;DHT22;4919;48.792;9.202;2023-05-10T15:19:45;23.60;1.00
9760;DHT22;4919;48.792;9.202;2023-05-10T15:22:30;23.70;1.00
9760;DHT22;4919;48.792;9.202;2023-05-10T15:25:15;23.80;1.00
9760;DHT22;4919;48.792;9.202;2023-05-10T15:28:01;23.80;1.00
9760;DHT22;4919;48.792;9.202;2023-05-10T15:30:46;23.70;1.00
9760;DHT22;4919;48.792;9.202;2023-05-10T15:33:30;23.50;1.00
9760;DHT22;4919;48.792;9.202;2023-05-10T15:36:15;23.70;1.00
9760;DHT22;4919;48.792;9.202;2023-05-10T15:39:00;23.70;1.00
9760;DHT22;4919;48.792;9.202;2023-05-10T15:41:45;23.80;1.00
9760;DHT22;4919;48.792;9.202;2023-05-10T15:44:30;23.60;1.00
9760;DHT22;4919;48.792;9.202;2023-05-10T15:47:15;23.40;1.00
9760;DHT22;4919;48.792;9.202;2023-05-10T15:49:59;22.90;1.00
9760;DHT22;4919;48.792;9.202;2023-05-10T15:52:44;22.60;1.00
9760;DHT22;4919;48.792;9.202;2023-05-10T15:55:29;22.30;1.00
9760;DHT22;4919;48.792;9.202;2023-05-10T15:58:14;22.10;1.00
9760;DHT22;4919;48.792;9.202;2023-05-10T16:00:59;21.90;1.00
9760;DHT22;4919;48.792;9.202;2023-05-10T16:03:44;21.80;1.00
9760;DHT22;4919;48.792;9.202;2023-05-10T16:06:29;21.60;1.00
9760;DHT22;4919;48.792;9.202;2023-05-10T16:09:14;21.30;1.00
9760;DHT22;4919;48.792;9.202;2023-05-10T16:11:59;21.60;1.00
9760;DHT22;4919;48.792;9.202;2023-05-10T16:14:43;21.50;1.00
9760;DHT22;4919;48.792;9.202;2023-05-10T16:17:28;21.30;1.00
9760;DHT22;4919;48.792;9.202;2023-05-10T16:20:13;21.40;1.00
9760;DHT22;4919;48.792;9.202;2023-05-10T16:23:02;21.30;1.00
9760;DHT22;4919;48.792;9.202;2023-05-10T16:25:47;21.30;1.00
9760;DHT22;4919;48.792;9.202;2023-05-10T16:28:32;21.10;1.00
9760;DHT22;4919;48.792;9.202;2023-05-10T16:31:17;21.00;1.00
9760;DHT22;4919;48.792;9.202;2023-05-10T16:34:02;20.90;1.00
9760;DHT22;4919;48.792;9.202;2023-05-10T16:36:47;20.80;1.00
9760;DHT22;4919;48.792;9.202;2023-05-10T16:39:32;20.70;1.00
9760;DHT22;4919;48.792;9.202;2023-05-10T16:42:17;20.70;1.00
9760;DHT22;4919;48.792;9.202;2023-05-10T16:45:02;20.60;1.00
9760;DHT22;4919;48.792;9.202;2023-05-10T16:47:46;20.50;1.00
9760;DHT22;4919;48.792;9.202;2023-05-10T16:50:31;20.30;1.00
9760;DHT22;4919;48.792;9.202;2023-05-10T16:53:17;20.30;1.00
9760;DHT22;4919;48.792;9.202;2023-05-10T16:56:02;20.10;1.00
9760;DHT22;4919;48.792;9.202;2023-05-10T16:58:47;20.00;1.00
9760;DHT22;4919;48.792;9.202;2023-05-10T17:01:32;20.00;1.00
9760;DHT22;4919;48.792;9.202;2023-05-10T17:04:17;19.90;1.00
9760;DHT22;4919;48.792;9.202;2023-05-10T17:07:02;19.90;1.00
9760;DHT22;4919;48.792;9.202;2023-05-10T17:09:47;19.90;1.00
9760;DHT22;4919;48.792;9.202;2023-05-10T17:12:32;19.90;1.00
9760;DHT22;4919;48.792;9.202;2023-05-10T17:15:17;19.90;1.00
9760;DHT22;4919;48.792;9.202;2023-05-10T17:18:02;20.00;1.00
9760;DHT22;4919;48.792;9.202;2023-05-10T17:20:47;19.90;1.00
9760;DHT22;4919;48.792;9.202;2023-05-10T17:23:32;19.90;1.00
9760;DHT22;4919;48.792;9.202;2023-05-10T17:26:17;19.80;1.00
9760;DHT22;4919;48.792;9.202;2023-05-10T17:29:03;19.60;1.00
9760;DHT22;4919;48.792;9.202;2023-05-10T17:31:48;19.50;1.00
9760;DHT22;4919;48.792;9.202;2023-05-10T17:34:32;19.50;1.00
9760;DHT22;4919;48.792;9.202;2023-05-10T17:37:17;19.50;1.00
9760;DHT22;4919;48.792;9.202;2023-05-10T17:40:02;19.40;1.00
9760;DHT22;4919;48.792;9.202;2023-05-10T17:42:47;19.40;1.00
9760;DHT22;4919;48.792;9.202;2023-05-10T17:45:32;19.30;1.00
9760;DHT22;4919;48.792;9.202;2023-05-10T17:48:17;19.20;1.00
9760;DHT22;4919;48.792;9.202;2023-05-10T17:51:02;19.20;1.00
9760;DHT22;4919;48.792;9.202;2023-05-10T17:53:47;19.10;1.00
9760;DHT22;4919;48.792;9.202;2023-05-10T17:56:32;19.10;1.00
9760;DHT22;4919;48.792;9.202;2023-05-10T17:59:17;19.10;1.00
9760;DHT22;4919;48.792;9.202;2023-05-10T18:02:02;19.00;1.00
9760;DHT22;4919;48.792;9.202;2023-05-10T18:04:47;18.90;1.00
9760;DHT22;4919;48.792;9.202;2023-05-10T18:07:31;18.90;1.00
9760;DHT22;4919;48.792;9.202;2023-05-10T18:10:16;18.90;1.00
9760;DHT22;4919;48.792;9.202;2023-05-10T18:13:01;18.90;1.00
9760;DHT22;4919;48.792;9.202;2023-05-10T18:15:46;18.80;1.00
9760;DHT22;4919;48.792;9.202;2023-05-10T18:18:31;18.80;1.00
9760;DHT22;4919;48.792;9.202;2023-05-10T18:21:16;18.60;1.00
9760;DHT22;4919;48.792;9.202;2023-05-10T18:24:01;18.50;1.00
9760;DHT22;4919;48.792;9.202;2023-05-10T18:26:46;18.60;1.00
9760;DHT22;4919;48.792;9.202;2023-05-10T18:29:31;18.40;1.00
9760;DHT22;4919;48.792;9.202;2023-05-10T18:32:15;18.30;1.00
9760;DHT22;4919;48.792;9.202;2023-05-10T18:35:00;18.20;1.00
9760;DHT22;4919;48.792;9.202;2023-05-10T18:37:46;18.00;1.00
9760;DHT22;4919;48.792;9.202;2023-05-10T18:40:30;17.90;1.00
9760;DHT22;4919;48.792;9.202;2023-05-10T18:43:15;17.80;1.00
9760;DHT22;4919;48.792;9.202;2023-05-10T18:46:00;17.60;1.00